Menu Close Menu
Station Historical Data
Daily Summary for May 4, 2017 Units:  Metric    English   Both
« Previous Day
Next Day »
Daily Weekly Monthly Yearly Custom
  High: Low: Average:
Temperature: 21.4 °C 16.1 °C 19.4 °C
Dew Point: 17.4 °C 9.1 °C 12.6 °C
Humidity: 93% 46% 68%
Wind Speed: 1.6km/h 0km/h 0km/h
Wind Gust: 8km/h - -
Wind- - NW
Pressure: 1014.4 hPa 1001.6 hPa -
Precipitation: 6.35 mm    
Historical Graphs
 
 
Tabular Data for May 4, 2017
Time Temperature Dew Point Pressure Wind Wind Speed Wind Gust Humidity Rainfall Rate (Hourly) solar Conditions
00:00 21.2 °C 9.8 °C 1014.4 hPa Calm     48% 0 mm WeatherDisplay:10.37 W/m2 SCT
00:15 21.2 °C 9.8 °C 1014.4 hPa Calm     48% 0 mm WeatherDisplay:10.37 W/m2 SCT
00:30 21.1 °C 9.9 °C 1013.1 hPa Calm     49% 0 mm WeatherDisplay:10.37 W/m2 SCT
00:45 21 °C 9.9 °C 1013.1 hPa Calm     49% 0 mm WeatherDisplay:10.37 W/m2 SCT
01:00 21 °C 9.9 °C 1013.1 hPa Calm     49% 0 mm WeatherDisplay:10.37 W/m2 SCT
01:15 20.9 °C 9.8 °C 1013.1 hPa Calm     49% 0 mm WeatherDisplay:10.37 W/m2 SCT
01:30 20.9 °C 9.8 °C 1013.1 hPa Calm     49% 0 mm WeatherDisplay:10.37 W/m2 SCT
01:45 21.2 °C 9.4 °C 1013.1 hPa Calm   1.6 km/h 47% 0 mm WeatherDisplay:10.37 W/m2 SCT
02:00 21.4 °C 9.6 °C 1012.8 hPa Calm   1.6 km/h 47% 0 mm WeatherDisplay:10.37 W/m2 SCT
02:15 21.4 °C 9.6 °C 1012.8 hPa Calm   1.6 km/h 47% 0 mm WeatherDisplay:10.37 W/m2 SCT
02:30 21.4 °C 9.6 °C 1012.8 hPa Calm   1.6 km/h 47% 0 mm WeatherDisplay:10.37 W/m2 SCT
02:45 21.4 °C 9.6 °C 1012.8 hPa Calm   1.6 km/h 47% 0 mm WeatherDisplay:10.37 W/m2 SCT
03:00 21.4 °C 9.6 °C 1012.8 hPa Calm   1.6 km/h 47% 0 mm WeatherDisplay:10.37 W/m2 SCT
03:15 21.2 °C 9.1 °C 1012.1 hPa Calm   1.6 km/h 46% 0 mm WeatherDisplay:10.37 W/m2 SCT
03:30 20.9 °C 9.4 °C 1011.7 hPa Calm   1.6 km/h 48% 0 mm WeatherDisplay:10.37 W/m2 SCT
03:45 20.7 °C 9.6 °C 1012.1 hPa Calm   1.6 km/h 49% 0 mm WeatherDisplay:10.37 W/m2 SCT
04:00 20.7 °C 9.6 °C 1012.1 hPa Calm     49% 0 mm WeatherDisplay:10.37 W/m2 SCT
04:15 20.7 °C 9.6 °C 1012.8 hPa Calm     49% 0 mm WeatherDisplay:10.37 W/m2 SCT
04:30 20.9 °C 9.4 °C 1013.1 hPa Calm     48% 0 mm WeatherDisplay:10.37 W/m2 SCT
04:45 20.9 °C 9.4 °C 1012.8 hPa Calm     48% 0 mm WeatherDisplay:10.37 W/m2 SCT
05:00 20.9 °C 9.4 °C 1012.8 hPa Calm     48% 0 mm WeatherDisplay:10.37 W/m2 SCT
05:15 20.9 °C 9.4 °C 1013.1 hPa Calm     48% 0 mm WeatherDisplay:10.37 W/m2 SCT
05:30 20.7 °C 9.6 °C 1013.4 hPa Calm     49% 0 mm WeatherDisplay:10.37 W/m2 SCT
05:45 20.9 °C 9.4 °C 1013.4 hPa Calm     48% 0 mm WeatherDisplay:10.37 W/m2 SCT
06:00 20.9 °C 9.4 °C 1013.4 hPa Calm     48% 0 mm WeatherDisplay:10.37 W/m2 SCT
06:15 20.9 °C 9.4 °C 1013.4 hPa Calm     48% 0 mm WeatherDisplay:10.37 W/m2 SCT
06:30 20.7 °C 9.6 °C 1013.4 hPa Calm     49% 0 mm WeatherDisplay:10.37 W/m2 SCT
06:45 20.9 °C 9.4 °C 1013.1 hPa Calm     48% 0 mm WeatherDisplay:10.37 W/m2 SCT
07:00 20.9 °C 9.4 °C 1013.1 hPa Calm     48% 0 mm WeatherDisplay:10.37 W/m2 SCT
07:15 20.9 °C 9.4 °C 1012.8 hPa Calm     48% 0 mm WeatherDisplay:10.37 W/m2 SCT
07:30 20.9 °C 9.4 °C 1013.1 hPa Calm     48% 0 mm WeatherDisplay:10.37 W/m2 SCT
07:45 20.7 °C 9.6 °C 1013.1 hPa Calm     49% 0 mm WeatherDisplay:10.37 W/m2 SCT
08:00 20.9 °C 9.4 °C 1013.1 hPa Calm     48% 0 mm WeatherDisplay:10.37 W/m2 SCT
08:15 20.9 °C 9.4 °C 1013.1 hPa Calm     48% 0 mm WeatherDisplay:10.37 W/m2 SCT
08:30 20.7 °C 9.6 °C 1012.4 hPa Calm     49% 0 mm WeatherDisplay:10.37 W/m2 SCT
08:45 20.9 °C 9.4 °C 1012.4 hPa Calm     48% 0 mm WeatherDisplay:10.37 W/m2 SCT
09:00 20.7 °C 9.6 °C 1012.1 hPa Calm     49% 0 mm WeatherDisplay:10.37 W/m2 SCT
09:15 20.9 °C 9.4 °C 1012.4 hPa Calm     48% 0 mm WeatherDisplay:10.37 W/m2 SCT
09:30 20.7 °C 9.6 °C 1011.4 hPa Calm     49% 0 mm WeatherDisplay:10.37 W/m2 SCT
09:45 20.7 °C 9.6 °C 1011.1 hPa Calm     49% 0 mm WeatherDisplay:10.37 W/m2 SCT
10:00 20.7 °C 9.6 °C 1010.7 hPa Calm     49% 0 mm WeatherDisplay:10.37 W/m2 SCT
10:15 20.7 °C 9.6 °C 1010.7 hPa Calm     49% 0 mm WeatherDisplay:10.37 W/m2 SCT
10:30 20.9 °C 9.4 °C 1010.4 hPa Calm     48% 0 mm WeatherDisplay:10.37 W/m2 SCT
10:45 20.7 °C 9.6 °C 1010 hPa Calm     49% 0 mm WeatherDisplay:10.37 W/m2 SCT
11:00 20.7 °C 9.6 °C 1010.4 hPa Calm     49% 0 mm WeatherDisplay:10.37 W/m2 SCT
11:15 20.9 °C 9.4 °C 1009.7 hPa Calm     48% 0 mm WeatherDisplay:10.37 W/m2 SCT
11:30 20.7 °C 9.6 °C 1007.3 hPa Calm     49% 0 mm WeatherDisplay:10.37 W/m2 SCT
11:45 20.7 °C 9.6 °C 1007.7 hPa Calm     49% 0 mm WeatherDisplay:10.37 W/m2 SCT
12:00 20.7 °C 9.6 °C 1008 hPa Calm     49% 0 mm WeatherDisplay:10.37 W/m2 SCT
12:15 20.9 °C 9.4 °C 1007.7 hPa Calm     48% 0 mm WeatherDisplay:10.37 W/m2 SCT
12:30 20.7 °C 9.6 °C 1008 hPa Calm     49% 0 mm WeatherDisplay:10.37 W/m2 SCT
12:45 20.7 °C 9.6 °C 1007.3 hPa Calm     49% 0 mm WeatherDisplay:10.37 W/m2 SCT
13:00 16.1 °C 14.9 °C 1007.3 hPa Calm   1.6 km/h 93% 0 mm WeatherDisplay:10.37 W/m2 SCT
13:15 17.2 °C 15.4 °C 1006.3 hPa WNW 1.6 km/h 8 km/h 89% 0 mm WeatherDisplay:10.37 W/m2 SCT
13:30 17.2 °C 15.2 °C 1006.7 hPa Calm   4.8 km/h 88% 0 mm WeatherDisplay:10.37 W/m2 SCT
13:45 17.3 °C 15.5 °C 1006.7 hPa Calm   1.6 km/h 89% 0 mm WeatherDisplay:10.37 W/m2 SCT
14:00 17.6 °C 15.6 °C 1006.3 hPa Calm   8 km/h 88% 0 mm WeatherDisplay:10.37 W/m2 SCT
14:15 17.7 °C 15.8 °C 1006 hPa Calm   3.2 km/h 89% 0 mm WeatherDisplay:10.37 W/m2 SCT
14:30 17.3 °C 15.5 °C 1006.7 hPa Calm     89% 0 mm WeatherDisplay:10.37 W/m2 SCT
14:45 17.8 °C 15.8 °C 1005.6 hPa Calm   1.6 km/h 88% 0 mm WeatherDisplay:10.37 W/m2 SCT
15:00 17.9 °C 15.9 °C 1005.6 hPa NW 1.6 km/h 4.8 km/h 88% 0 mm WeatherDisplay:10.37 W/m2 SCT
15:15 17.8 °C 15.8 °C 1005.6 hPa Calm     88% 0 mm WeatherDisplay:10.37 W/m2 SCT
15:30 17.8 °C 15.8 °C 1005.6 hPa Calm     88% 0 mm WeatherDisplay:10.37 W/m2 SCT
15:45 17.8 °C 15.8 °C 1005.6 hPa Calm     88% 0 mm WeatherDisplay:10.37 W/m2 SCT
16:00 17.8 °C 15.8 °C 1005.6 hPa Calm     88% 0 mm WeatherDisplay:10.37 W/m2 SCT
16:15 17.7 °C 16.2 °C 1003.6 hPa Calm   4.8 km/h 91% 0.76 mm WeatherDisplay:10.37 W/m2 RA
16:30 17.8 °C 15.8 °C 1005.6 hPa Calm     88% 0 mm WeatherDisplay:10.37 W/m2 SCT
16:45 17.8 °C 15.8 °C 1005.6 hPa Calm     88% 0 mm WeatherDisplay:10.37 W/m2 SCT
17:00 17.7 °C 16.4 °C 1002.9 hPa Calm   4.8 km/h 92% 0.25 mm WeatherDisplay:10.37 W/m2 SCT
17:15 17.7 °C 16.6 °C 1002.9 hPa Calm   1.6 km/h 93% 0 mm WeatherDisplay:10.37 W/m2 SCT
17:30 17.7 °C 16.6 °C 1002.9 hPa Calm     93% 0 mm WeatherDisplay:10.37 W/m2 SCT
17:45 18.1 °C 16.9 °C 1002.6 hPa Calm     93% 0 mm WeatherDisplay:10.37 W/m2 SCT
18:00 18 °C 16.8 °C 1002.6 hPa Calm     93% 0 mm WeatherDisplay:10.37 W/m2 SCT
18:15 18 °C 16.8 °C 1002.6 hPa Calm     93% 0 mm WeatherDisplay:10.37 W/m2 SCT
18:30 18.4 °C 17.3 °C 1001.9 hPa Calm   1.6 km/h 93% 0 mm WeatherDisplay:10.37 W/m2 SCT
18:45 18.6 °C 17.4 °C 1001.6 hPa Calm   1.6 km/h 93% 0 mm WeatherDisplay:10.37 W/m2 SCT
19:00 18.4 °C 17.3 °C 1001.9 hPa Calm   1.6 km/h 93% 0 mm WeatherDisplay:10.37 W/m2 SCT
19:15 18.6 °C 17.3 °C 1001.9 hPa North 1.6 km/h 1.6 km/h 92% 0 mm WeatherDisplay:10.37 W/m2 SCT
19:30 18.6 °C 17.3 °C 1001.6 hPa Calm     92% 0 mm WeatherDisplay:10.37 W/m2 SCT
19:45 18.5 °C 17.2 °C 1001.9 hPa Calm     92% 0 mm WeatherDisplay:10.37 W/m2 SCT
20:00 18.4 °C 17.1 °C 1001.9 hPa Calm   1.6 km/h 92% 0 mm WeatherDisplay:10.37 W/m2 SCT
20:15 18.3 °C 16.8 °C 1001.6 hPa Calm   3.2 km/h 91% 0 mm WeatherDisplay:10.37 W/m2 SCT
20:30 18.2 °C 16.7 °C 1001.6 hPa Calm   3.2 km/h 91% 0.51 mm WeatherDisplay:10.37 W/m2 SCT
20:45 18 °C 16.7 °C 1001.9 hPa Calm     92% 1.78 mm WeatherDisplay:10.37 W/m2 RA
21:00 17.9 °C 16.6 °C 1001.9 hPa Calm     92% 0.25 mm WeatherDisplay:10.37 W/m2 SCT
21:15 17.3 °C 15.9 °C 1002.6 hPa Calm     92% 0.25 mm WeatherDisplay:10.37 W/m2 SCT
21:30 17.3 °C 15.9 °C 1002.9 hPa Calm     92% 0 mm WeatherDisplay:10.37 W/m2 SCT
21:45 17.3 °C 15.9 °C 1002.9 hPa Calm     92% 0 mm WeatherDisplay:10.37 W/m2 SCT
22:00 17.3 °C 15.9 °C 1002.9 hPa Calm     92% 0 mm WeatherDisplay:10.37 W/m2 SCT
22:15 17.3 °C 15.9 °C 1003.3 hPa Calm     92% 0 mm WeatherDisplay:10.37 W/m2 SCT
22:30 17.3 °C 15.9 °C 1003.9 hPa Calm     92% 0 mm WeatherDisplay:10.37 W/m2 SCT
22:45 17.3 °C 15.9 °C 1003.6 hPa Calm     92% 0 mm WeatherDisplay:10.37 W/m2 SCT
23:00 17.3 °C 15.9 °C 1002.6 hPa Calm     92% 0 mm WeatherDisplay:10.37 W/m2 SCT
23:15 17.3 °C 15.9 °C 1002.9 hPa Calm     92% 0 mm WeatherDisplay:10.37 W/m2 SCT
23:30 17.3 °C 15.9 °C 1002.9 hPa Calm     92% 0 mm WeatherDisplay:10.37 W/m2 SCT
23:45 17.3 °C 15.9 °C 1002.3 hPa Calm     92% 0 mm WeatherDisplay:10.37 W/m2 SCT
Piedmont Bend
Compliments of Weather Underground - 4 mb